地図

経路データ

SID SEASON NUMBER BASIN SUBBASIN NAME ISO_TIME NATURE LAT LON WMO_WIND WMO_PRES WMO_AGENCY TRACK_TYPE DIST2LAND LANDFALL IFLAG USA_AGENCY USA_ATCF_ID USA_LAT USA_LON USA_RECORD USA_STATUS USA_WIND USA_PRES USA_SSHS USA_R34_NE USA_R34_SE USA_R34_SW USA_R34_NW USA_R50_NE USA_R50_SE USA_R50_SW USA_R50_NW USA_R64_NE USA_R64_SE USA_R64_SW USA_R64_NW USA_POCI USA_ROCI USA_RMW USA_EYE TOKYO_LAT TOKYO_LON TOKYO_GRADE TOKYO_WIND TOKYO_PRES TOKYO_R50_DIR TOKYO_R50_LONG TOKYO_R50_SHORT TOKYO_R30_DIR TOKYO_R30_LONG TOKYO_R30_SHORT TOKYO_LAND CMA_LAT CMA_LON CMA_CAT CMA_WIND CMA_PRES HKO_LAT HKO_LON HKO_CAT HKO_WIND HKO_PRES NEWDELHI_LAT NEWDELHI_LON NEWDELHI_GRADE NEWDELHI_WIND NEWDELHI_PRES NEWDELHI_CI NEWDELHI_DP NEWDELHI_POCI REUNION_LAT REUNION_LON REUNION_TYPE REUNION_WIND REUNION_PRES REUNION_TNUM REUNION_CI REUNION_RMW REUNION_R34_NE REUNION_R34_SE REUNION_R34_SW REUNION_R34_NW REUNION_R50_NE REUNION_R50_SE REUNION_R50_SW REUNION_R50_NW REUNION_R64_NE REUNION_R64_SE REUNION_R64_SW REUNION_R64_NW BOM_LAT BOM_LON BOM_TYPE BOM_WIND BOM_PRES BOM_TNUM BOM_CI BOM_RMW BOM_R34_NE BOM_R34_SE BOM_R34_SW BOM_R34_NW BOM_R50_NE BOM_R50_SE BOM_R50_SW BOM_R50_NW BOM_R64_NE BOM_R64_SE BOM_R64_SW BOM_R64_NW BOM_ROCI BOM_POCI BOM_EYE BOM_POS_METHOD BOM_PRES_METHOD NADI_LAT NADI_LON NADI_CAT NADI_WIND NADI_PRES WELLINGTON_LAT WELLINGTON_LON WELLINGTON_WIND WELLINGTON_PRES DS824_LAT DS824_LON DS824_STAGE DS824_WIND DS824_PRES TD9636_LAT TD9636_LON TD9636_STAGE TD9636_WIND TD9636_PRES TD9635_LAT TD9635_LON TD9635_WIND TD9635_PRES TD9635_ROCI NEUMANN_LAT NEUMANN_LON NEUMANN_CLASS NEUMANN_WIND NEUMANN_PRES MLC_LAT MLC_LON MLC_CLASS MLC_WIND MLC_PRES USA_GUST BOM_GUST BOM_GUST_PER REUNION_GUST REUNION_GUST_PER USA_SEAHGT USA_SEARAD_NE USA_SEARAD_SE USA_SEARAD_SW USA_SEARAD_NW STORM_SPEED STORM_DIR
1963240N09157 1963 77 WP MM FAYE 1963-08-28 00:00:00 TS 9.10000 157.100 1006 tokyo main 1490 1455 _OO___________ -1 9.10000 157.100 2 1006 0 0 0 9.10000 157.100 0 1006 11 264
1963240N09157 1963 77 WP MM FAYE 1963-08-28 03:00:00 TS 9.04029 156.527 main 1450 1427 _PP___________ -1 9.03779 156.527 2 1005 0 0 9.04279 156.527 0 1006 11 265
1963240N09157 1963 77 WP MM FAYE 1963-08-28 06:00:00 TS 9.00000 156.000 1004 tokyo main 1427 1410 _OO___________ -1 9.00000 156.000 2 1004 0 0 0 9.00000 156.000 0 1006 10 267
1963240N09157 1963 77 WP MM FAYE 1963-08-28 09:00:00 TS 8.99222 155.530 main 1406 1387 _PP___________ -1 8.99972 155.530 2 1005 0 0 8.98472 155.530 0 1006 10 270
1963240N09157 1963 77 WP MM FAYE 1963-08-28 12:00:00 TS 9.00000 155.000 1006 tokyo main 1387 1364 _OO___________ -1 9.00000 155.000 2 1006 0 0 0 9.00000 155.000 0 1006 12 270
1963240N09157 1963 77 WP MM FAYE 1963-08-28 15:00:00 TS 8.98880 154.287 main 1364 1342 _PP___________ -1 8.94255 154.287 2 1006 0 0 9.03505 154.287 0 1006 15 270
1963240N09157 1963 77 WP MM FAYE 1963-08-28 18:00:00 TS 9.00000 153.500 1006 tokyo main 1342 1327 _OO___________ -1 8.90000 153.500 2 1006 0 0 0 9.10000 153.500 0 1006 15 272
1963240N09157 1963 77 WP MM FAYE 1963-08-28 21:00:00 TS 9.04873 152.727 main 1326 1326 _PP___________ -1 8.91248 152.727 2 1006 0 0 9.18498 152.728 0 1006 15 276
1963240N09157 1963 77 WP MM FAYE 1963-08-29 00:00:00 TS 9.15000 152.000 1006 tokyo main 1339 1327 _OO___________ -1 9.00000 152.000 2 1006 0 0 0 9.30000 152.000 0 1006 13 281
1963240N09157 1963 77 WP MM FAYE 1963-08-29 03:00:00 TS 9.30220 151.392 main 1345 1345 _PP___________ -1 9.16220 151.392 2 1004 0 0 9.44219 151.392 0 1005 12 286
1963240N09157 1963 77 WP MM FAYE 1963-08-29 06:00:00 TS 9.50000 150.800 1002 tokyo main 1353 1350 _OO___________ -1 9.40000 150.800 2 1002 0 0 0 9.60000 150.800 0 1004 13 288
1963240N09157 1963 77 WP MM FAYE 1963-08-29 09:00:00 TS 9.71745 150.115 main 1355 1353 _PP___________ -1 9.69995 150.115 2 1003 0 0 9.73495 150.115 0 1004 15 288
1963240N09157 1963 77 WP MM FAYE 1963-08-29 12:00:00 TS 9.95000 149.400 1004 tokyo main 1373 1362 _OO___________ -1 10.0000 149.400 2 1004 0 0 0 9.90000 149.400 0 1004 15 288
1963240N09157 1963 77 WP MM FAYE 1963-08-29 15:00:00 TS 10.1673 148.707 main 1385 1383 _PP___________ -1 10.1998 148.707 2 1004 0 0 10.1348 148.707 0 1004 15 288
1963240N09157 1963 77 WP MM FAYE 1963-08-29 18:00:00 TS 10.4000 148.000 1004 tokyo main 1402 1401 _OO___________ -1 10.4000 148.000 2 1004 0 0 0 10.4000 148.000 0 1004 15 290
1963240N09157 1963 77 WP MM FAYE 1963-08-29 21:00:00 TS 10.6899 147.250 main 1434 1434 _PP___________ -1 10.7149 147.250 2 1003 0 0 10.6649 147.250 0 1003 16 290
1963240N09157 1963 77 WP MM FAYE 1963-08-30 00:00:00 TS 10.9500 146.500 1002 tokyo main 1467 1467 _OO___________ -1 11.0000 146.500 2 1002 0 0 0 10.9000 146.500 0 1002 15 286
1963240N09157 1963 77 WP MM FAYE 1963-08-30 03:00:00 TS 11.0935 145.803 main 1481 1481 _PP___________ -1 11.1222 145.807 2 1002 0 0 11.0647 145.800 0 1002 14 280
1963240N09157 1963 77 WP MM FAYE 1963-08-30 06:00:00 TS 11.2000 145.100 1002 tokyo main 1499 1499 _OO___________ -1 11.2000 145.100 2 1002 0 0 0 11.2000 145.100 0 1002 15 280
1963240N09157 1963 77 WP MM FAYE 1963-08-30 09:00:00 TS 11.3538 144.310 main 1533 1533 _PP___________ -1 11.3500 144.308 2 1002 0 0 11.3577 144.313 0 1002 16 281
1963240N09157 1963 77 WP MM FAYE 1963-08-30 12:00:00 TS 11.5000 143.550 1002 tokyo main 1559 1559 _OO___________ -1 11.5000 143.500 2 1002 0 0 0 11.5000 143.600 0 1002 14 281
1963240N09157 1963 77 WP MM FAYE 1963-08-30 15:00:00 TS 11.6147 142.920 main 1567 1560 _PP___________ -1 11.6297 142.750 2 1002 0 0 11.5997 143.090 0 1002 12 280
1963240N09157 1963 77 WP MM FAYE 1963-08-30 18:00:00 TS 11.7000 142.350 1002 tokyo main 1560 1542 _OO___________ -1 11.7000 142.000 2 1002 0 0 0 11.7000 142.700 0 1002 12 276
1963240N09157 1963 77 WP MM FAYE 1963-08-30 21:00:00 TS 11.7314 141.722 main 1539 1528 _PP___________ -1 11.6204 141.125 2 1002 0 0 11.8424 142.320 0 1002 11 275
1963240N09157 1963 77 WP MM FAYE 1963-08-31 00:00:00 TS 11.8000 141.200 1002 tokyo main 1528 1524 _OO___________ -1 11.6000 140.400 2 1002 0 0 0 12.0000 142.000 0 1002 9 290
1963240N09157 1963 77 WP MM FAYE 1963-08-31 03:00:00 TS 12.0173 140.901 main 1536 1536 _PP___________ -1 11.8771 140.068 2 1002 0 0 12.1574 141.735 0 1002 7 313
1963240N09157 1963 77 WP MM FAYE 1963-08-31 06:00:00 TS 12.2500 140.700 1002 tokyo main 1560 1550 _OO___________ -1 12.2000 139.900 2 1002 0 0 0 12.3000 141.500 0 1002 6 308
1963240N09157 1963 77 WP MM FAYE 1963-08-31 09:00:00 TS 12.3612 140.454 main 1563 1553 _PP___________ -1 12.3225 139.635 2 1001 0 0 12.3999 141.272 0 1001 5 292
1963240N09157 1963 77 WP MM FAYE 1963-08-31 12:00:00 TS 12.4500 140.200 1000 tokyo main 1563 1552 _OO___________ -1 12.4000 139.400 2 1000 0 0 0 12.5000 141.000 0 1000 6 296
1963240N09157 1963 77 WP MM FAYE 1963-08-31 15:00:00 TS 12.6037 139.936 main 1544 1525 _PP___________ -1 12.5574 139.242 2 1000 0 0 12.6500 140.630 0 1000 6 299
1963240N09157 1963 77 WP MM FAYE 1963-08-31 18:00:00 TS 12.7500 139.650 1000 tokyo main 1526 1494 _OO___________ -1 12.7000 139.100 2 1000 0 0 0 12.8000 140.200 0 1000 6 291
1963240N09157 1963 77 WP MM FAYE 1963-08-31 21:00:00 TS 12.8174 139.359 main 1494 1452 _PP___________ -1 12.7349 138.930 2 999 0 0 12.8998 139.787 0 999 7 283
1963240N09157 1963 77 WP MM FAYE 1963-09-01 00:00:00 TS 12.9000 139.000 998 tokyo main 1452 1410 _OO___________ -1 12.8000 138.700 2 998 0 0 0 13.0000 139.300 1 29 998 8 288
1963240N09157 1963 77 WP MM FAYE 1963-09-01 03:00:00 TS 13.0850 138.538 main 1401 1362 _PP___________ -1 13.0274 138.395 2 998 0 0 13.1425 138.680 1 29 996 10 296
1963240N09157 1963 77 WP MM FAYE 1963-09-01 06:00:00 TS 13.3500 138.050 998 tokyo main 1364 1304 OOOO_____O_O__ jtwc_wp WP131963 13.4000 138.200 30 -1 13.3000 138.000 2 998 0 0 0 13.3000 138.000 1 29 995 13.6000 138.000 TD 25 996 13.4000 138.200 TC 30 13.4000 138.200 30 995 240 11 297
1963240N09157 1963 77 WP MM FAYE 1963-09-01 09:00:00 TS 13.5959 137.491 main 1304 1246 PPPP_____P_P__ WP131963 13.6602 137.613 30 -1 13.4923 137.552 2 997 0 0 13.4348 137.357 1 33 994 13.9327 137.271 TD 25 995 13.6602 137.613 TC 30 13.6602 137.613 30 994 240 13 293
1963240N09157 1963 77 WP MM FAYE 1963-09-01 12:00:00 TS 13.8476 136.871 996 tokyo main 1246 1178 OOOO_____OOO__ jtwc_wp WP131963 13.9000 137.000 30 -1 13.7000 137.000 2 996 0 0 0 13.6000 136.700 2 38 993 14.2000 136.500 TD 25 995 13.9000 137.000 TC 30 13.9000 137.000 1 30 13.9000 137.000 30 994 240 14 291
1963240N09157 1963 77 WP MM FAYE 1963-09-01 15:00:00 TS 14.0895 136.189 main 1178 1108 PPPP_____PPP__ WP131963 14.1074 136.350 32 -1 13.9999 136.345 2 996 0 0 13.8351 135.978 2 38 992 14.3651 135.677 TD 27 994 14.1074 136.350 TC 32 14.1185 136.360 1 32 14.1074 136.350 32 993 240 14 289
1963240N09157 1963 77 WP MM FAYE 1963-09-01 18:00:00 TS 14.3032 135.510 996 tokyo main 1108 1049 OOOO_____OPO__ jtwc_wp WP131963 14.3000 135.700 35 0 14.3000 135.600 9 996 0 0 0 14.1000 135.300 2 38 991 14.5000 134.900 TD 30 994 14.3000 135.700 TC 35 14.3289 135.726 1 35 14.3000 135.700 35 993 240 14 288
1963240N09157 1963 77 WP MM FAYE 1963-09-01 21:00:00 TS 14.5149 134.869 main 1049 992 PPPP_____PPP__ WP131963 14.4998 135.085 37 0 14.5230 134.740 9 995 0 0 14.3497 134.770 2 43 990 14.7074 134.218 TD 35 993 14.4998 135.085 TC 37 14.5248 135.104 1 37 14.4998 135.085 37 992 270 13 289
1963240N09157 1963 77 WP MM FAYE 1963-09-02 00:00:00 TS 14.7143 134.286 994 tokyo main 992 947 OOOO_____OOO__ jtwc_wp WP131963 14.7000 134.500 40 0 14.7000 134.000 9 994 0 0 0 14.6000 134.300 3 48 989 14.9000 133.700 TS 40 992 14.7000 134.500 TC 40 14.7000 134.500 2 40 14.7000 134.500 40 991 300 11 290
1963240N09157 1963 77 WP MM FAYE 1963-09-02 03:00:00 TS 14.8993 133.797 main 947 909 PPPP_____PPP__ WP131963 14.9149 133.935 47 0 14.8494 133.647 9 991 0 0 14.8425 133.777 3 48 988 15.0071 133.427 TS 45 990 14.9149 133.935 TC 47 14.8518 133.921 2 46 14.9149 133.935 47 989 300 10 292
1963240N09157 1963 77 WP MM FAYE 1963-09-02 06:00:00 TS 15.0703 133.353 988 tokyo main 913 867 OOOO_____OPO__ jtwc_wp WP131963 15.1000 133.400 55 0 15.0000 133.400 9 988 0 0 0 15.1000 133.300 3 48 988 15.1000 133.200 STS 50 988 15.1000 133.400 TC 55 14.9921 133.374 2 52 15.1000 133.400 55 987 300 9 290
1963240N09157 1963 77 WP MM FAYE 1963-09-02 09:00:00 TS 15.2245 132.878 main 867 832 PPPP_____PPP__ WP131963 15.2000 132.870 60 0 15.1925 132.973 9 986 0 0 15.4073 132.927 3 53 987 15.2351 132.773 STS 52 985 15.2000 132.870 TC 60 15.1364 132.865 2 58 15.2000 132.870 60 985 300 9 289
1963240N09157 1963 77 WP MM FAYE 1963-09-02 12:00:00 TS 15.3857 132.429 985 tokyo main 826 802 OOOO_____OOO__ jtwc_wp WP131963 15.3000 132.400 65 1 15.4000 132.500 9 985 0 0 0 15.7000 132.600 3 58 987 15.4000 132.300 STS 55 983 15.3000 132.400 TC 65 15.3000 132.400 3 65 15.3000 132.400 65 983 300 9 293
1963240N09157 1963 77 WP MM FAYE 1963-09-02 15:00:00 TS 15.5713 132.041 main 798 775 PPPP_____PPP__ WP131963 15.4773 132.035 67 1 15.5850 132.042 9 982 0 0 15.9149 132.257 3 63 986 15.5849 131.892 STS 57 981 15.4773 132.035 TC 67 15.4824 131.989 3 67 15.4773 132.035 67 981 330 8 299
1963240N09157 1963 77 WP MM FAYE 1963-09-02 18:00:00 TS 15.7842 131.674 980 tokyo main 781 756 OOOO_____OPO__ jtwc_wp WP131963 15.7000 131.700 70 1 15.8000 131.600 9 980 0 0 0 16.1000 131.900 4 68 986 15.8000 131.500 STS 60 980 15.7000 131.700 TC 70 15.6891 131.619 3 70 15.7000 131.700 70 980 360 9 301
1963240N09157 1963 77 WP MM FAYE 1963-09-02 21:00:00 TS 16.0205 131.276 main 756 734 PPPP_____PPP__ WP131963 15.9275 131.300 72 1 16.0925 131.170 9 980 0 0 16.2999 131.515 4 68 985 16.0425 131.085 STS 62 977 15.9275 131.300 TC 72 15.9262 131.264 3 72 15.9275 131.300 72 978 360 9 303
1963240N09157 1963 77 WP MM FAYE 1963-09-03 00:00:00 TS 16.2857 130.886 980 tokyo main 741 726 OOOO_____OOO__ jtwc_wp WP131963 16.2000 130.900 75 1 16.4000 130.800 9 980 0 0 0 16.5000 131.100 4 68 985 16.3000 130.700 T 65 975 16.2000 130.900 TC 75 16.2000 130.900 4 75 16.2000 130.900 75 977 360 9 309
1963240N09157 1963 77 WP MM FAYE 1963-09-03 03:00:00 TS 16.5664 130.561 main 730 701 PPPP_____PPP__ WP131963 16.5348 130.565 77 1 16.6345 130.594 9 980 0 0 16.6848 130.672 4 68 984 16.5196 130.437 T 67 975 16.5348 130.565 TC 77 16.5214 130.530 4 76 16.5348 130.565 77 975 360 9 312
1963240N09157 1963 77 WP MM FAYE 1963-09-03 06:00:00 TS 16.8823 130.191 980 tokyo main 706 677 OOOO_____OPO__ jtwc_wp WP131963 16.9000 130.200 80 1 16.9000 130.300 9 980 0 0 0 16.9000 130.200 4 68 984 16.8000 130.100 T 70 975 16.9000 130.200 TC 80 16.8762 130.139 4 77 16.9000 130.200 80 974 360 11 309
1963240N09157 1963 77 WP MM FAYE 1963-09-03 09:00:00 TS 17.2500 129.685 main 683 651 PPPP_____PPP__ WP131963 17.2573 129.745 80 1 17.3003 129.668 9 980 0 0 17.1848 129.680 4 68 983 17.2501 129.511 T 70 975 17.2573 129.745 TC 80 17.2430 129.704 4 78 17.2573 129.745 80 974 360 13 305
1963240N09157 1963 77 WP MM FAYE 1963-09-03 12:00:00 TS 17.6143 129.086 980 tokyo main 651 626 OOOO_____OOO__ jtwc_wp WP131963 17.6000 129.200 80 1 17.7000 128.900 9 980 0 0 0 17.5000 129.100 4 68 982 17.7000 128.800 T 70 975 17.6000 129.200 TC 80 17.6000 129.200 4 80 17.6000 129.200 80 974 360 14 299
1963240N09157 1963 77 WP MM FAYE 1963-09-03 15:00:00 TS 17.9139 128.437 main 618 577 PPPP_____PPP__ WP131963 17.9074 128.580 80 1 17.9726 128.162 9 980 0 0 17.7999 128.465 4 68 981 17.9800 128.085 T 70 975 17.9074 128.580 TC 80 17.9226 128.605 4 81 17.9074 128.580 80 974 360 14 295
1963240N09157 1963 77 WP MM FAYE 1963-09-03 18:00:00 TS 18.1900 127.763 980 tokyo main 577 517 OOOO_____OPO__ jtwc_wp WP131963 18.2000 127.900 80 1 18.2000 127.500 9 980 0 0 0 18.1000 127.800 4 68 980 18.2000 127.400 T 70 975 18.2000 127.900 TC 80 18.2301 127.940 4 82 18.2000 127.900 80 974 360 14 294
1963240N09157 1963 77 WP MM FAYE 1963-09-03 21:00:00 TS 18.4787 127.124 main 506 444 PPPP_____PPP__ WP131963 18.5149 127.200 82 1 18.4418 127.042 9 977 0 0 18.4072 127.157 4 72 979 18.4345 126.842 T 72 972 18.5149 127.200 TC 82 18.5224 127.230 4 83 18.5149 127.200 82 974 330 13 295
1963240N09157 1963 77 WP MM FAYE 1963-09-04 00:00:00 TS 18.7571 126.486 975 tokyo main 444 385 OOOO_____OOO__ jtwc_wp WP131963 18.8000 126.500 85 2 18.7000 126.600 9 975 0 0 0 18.7000 126.500 4 77 978 18.7000 126.300 T 75 970 18.8000 126.500 TC 85 18.8000 126.500 4 85 18.8000 126.500 85 975 300 13 294
1963240N09157 1963 77 WP MM FAYE 1963-09-04 03:00:00 TS 19.0166 125.840 main 374 318 PPPP_____PPP__ WP131963 18.9994 125.864 90 2 18.9998 126.002 9 975 0 0 18.9647 125.815 4 77 977 19.0572 125.688 T 80 967 18.9994 125.864 TC 90 19.0965 125.782 4 88 18.9994 125.864 90 975 300 14 292
1963240N09157 1963 77 WP MM FAYE 1963-09-04 06:00:00 TS 19.2678 125.150 975 tokyo main 321 252 OOOO_____OPO__ jtwc_wp WP131963 19.2000 125.200 95 2 19.3000 125.300 9 975 0 0 0 19.2000 125.100 4 77 976 19.4000 125.000 ST 85 965 19.2000 125.200 TC 95 19.3745 125.051 4 92 19.2000 125.200 95 975 300 15 291
1963240N09157 1963 77 WP MM FAYE 1963-09-04 09:00:00 TS 19.5472 124.379 main 252 206 PPPP_____PPP__ WP131963 19.5225 124.416 97 3 19.5949 124.523 9 975 0 0 19.4148 124.357 4 82 974 19.6376 124.207 ST 87 962 19.5225 124.416 TC 97 19.6152 124.319 4 96 19.5225 124.416 97 973 300 16 289
1963240N09157 1963 77 WP MM FAYE 1963-09-04 12:00:00 TS 19.7714 123.586 975 tokyo main 207 177 OOOO_____OOO__ jtwc_wp WP131963 19.8000 123.600 100 3 19.8000 123.700 9 975 0 0 0 19.6000 123.600 5 87 972 19.8000 123.400 ST 90 960 19.8000 123.600 TC 100 19.8000 123.600 4 100 19.8000 123.600 100 972 300 15 282
1963240N09157 1963 77 WP MM FAYE 1963-09-04 15:00:00 TS 19.8694 122.819 main 175 167 PPPP_____PPP__ WP131963 19.8873 122.819 100 3 19.8226 122.862 9 975 0 0 19.7649 122.835 5 87 970 19.9295 122.685 ST 90 960 19.8873 122.819 TC 100 19.9068 122.893 4 100 19.8873 122.819 100 970 300 14 276
1963240N09157 1963 77 WP MM FAYE 1963-09-04 18:00:00 TS 19.9085 122.100 975 tokyo main 167 158 OOOO_____OPO__ jtwc_wp WP131963 19.9000 122.100 100 3 19.8000 122.100 9 975 0 0 0 19.9000 122.100 5 87 968 20.0000 122.000 ST 90 960 19.9000 122.100 TC 100 19.9592 122.203 4 100 19.9000 122.100 100 969 300 13 274
1963240N09157 1963 77 WP MM FAYE 1963-09-04 21:00:00 TS 19.9624 121.460 main 168 156 PPPP_____PPP__ WP131963 19.9421 121.470 100 3 19.8916 121.543 9 972 0 0 20.0221 121.435 5 92 966 20.0148 121.292 ST 90 960 19.9421 121.470 TC 100 19.9820 121.537 4 100 19.9421 121.470 100 968 300 12 275
1963240N09157 1963 77 WP MM FAYE 1963-09-05 00:00:00 TS 20.0143 120.857 970 tokyo main 156 156 OOOO_____OOO__ jtwc_wp WP131963 20.0000 120.900 100 3 20.0000 121.000 9 970 0 0 0 20.1000 120.800 5 97 965 20.0000 120.600 ST 90 960 20.0000 120.900 TC 100 20.0000 120.900 4 100 20.0000 120.900 100 967 300 12 276
1963240N09157 1963 77 WP MM FAYE 1963-09-05 03:00:00 TS 20.0815 120.239 main 179 179 PPPP_____PPP__ WP131963 20.1072 120.350 100 3 20.0729 120.250 9 970 0 0 20.1224 120.135 5 97 965 19.9922 119.942 ST 90 960 20.1072 120.350 TC 100 20.0611 120.296 4 101 20.1072 120.350 100 965 270 12 276
1963240N09157 1963 77 WP MM FAYE 1963-09-05 06:00:00 TS 20.1316 119.631 970 tokyo main 209 209 OOOO_____OPO__ jtwc_wp WP131963 20.2000 119.800 100 3 20.1000 119.500 9 970 0 0 0 20.1000 119.500 5 97 965 20.0000 119.300 ST 90 960 20.2000 119.800 TC 100 20.1211 119.720 4 102 20.2000 119.800 100 963 240 11 273
1963240N09157 1963 77 WP MM FAYE 1963-09-05 09:00:00 TS 20.1357 119.028 main 252 252 PPPP_____PPP__ WP131963 20.2224 119.207 102 3 20.0422 118.897 9 970 0 0 20.0348 118.920 5 97 964 20.0352 118.598 ST 90 957 20.2224 119.207 TC 102 20.1706 119.159 4 103 20.2224 119.207 102 961 240 11 270
1963240N09157 1963 77 WP MM FAYE 1963-09-05 12:00:00 TS 20.1286 118.457 970 tokyo main 291 291 OOOO_____OOO__ jtwc_wp WP131963 20.2000 118.600 105 3 20.0000 118.400 9 970 0 0 0 20.0000 118.400 5 97 964 20.1000 118.000 ST 90 955 20.2000 118.600 TC 105 20.2000 118.600 4 105 20.2000 118.600 105 959 240 10 270
1963240N09157 1963 77 WP MM FAYE 1963-09-05 15:00:00 TS 20.1437 117.942 main 341 319 PPPP_____PPP__ WP131963 20.1499 117.992 105 3 20.0847 117.985 9 967 0 0 20.0922 117.943 5 97 963 20.1994 117.670 ST 90 955 20.1499 117.992 TC 105 20.1798 118.020 4 106 20.1499 117.992 105 956 240 9 272
1963240N09157 1963 77 WP MM FAYE 1963-09-05 18:00:00 TS 20.1631 117.449 965 tokyo main 315 305 OOOO_____OPO__ jtwc_wp WP131963 20.1000 117.400 105 3 20.2000 117.600 9 965 0 0 0 20.2000 117.500 5 97 963 20.3000 117.400 ST 90 955 20.1000 117.400 TC 105 20.1419 117.441 4 107 20.1000 117.400 105 954 240 9 272
1963240N09157 1963 77 WP MM FAYE 1963-09-05 21:00:00 TS 20.1745 116.945 main 301 286 PPPP_____PPP__ WP131963 20.0848 116.843 107 3 20.2646 117.195 9 962 0 0 20.2223 117.022 5 97 962 20.3723 117.003 ST 92 952 20.0848 116.843 TC 107 20.1080 116.867 4 108 20.0848 116.843 107 954 240 10 271
1963240N09157 1963 77 WP MM FAYE 1963-09-06 00:00:00 TS 20.1857 116.414 960 tokyo main 286 277 OOOO_____OOO__ jtwc_wp WP131963 20.1000 116.300 110 3 20.3000 116.700 9 960 0 0 0 20.2000 116.500 5 97 961 20.4000 116.500 ST 95 950 20.1000 116.300 TC 110 20.1000 116.300 4 110 20.1000 116.300 110 955 240 10 271
1963240N09157 1963 77 WP MM FAYE 1963-09-06 03:00:00 TS 20.1952 115.828 main 273 256 PPPP_____PPP__ WP131963 20.1348 115.750 110 3 20.3078 116.022 9 960 0 0 20.1349 115.915 5 101 959 20.3651 115.880 ST 97 950 20.1348 115.750 TC 110 20.1540 115.731 4 108 20.1348 115.750 110 956 240 11 272
1963240N09157 1963 77 WP MM FAYE 1963-09-06 06:00:00 TS 20.2192 115.224 960 tokyo main 252 227 OOOO_____OPO__ jtwc_wp WP131963 20.2000 115.200 110 3 20.3000 115.300 9 960 0 0 0 20.1000 115.300 6 106 958 20.3000 115.200 SuperT 100 950 20.2000 115.200 TC 110 20.2346 115.171 4 107 20.2000 115.200 110 958 240 11 274
1963240N09157 1963 77 WP MM FAYE 1963-09-06 09:00:00 TS 20.2775 114.628 main 225 212 PPPP_____PPP__ WP131963 20.3000 114.635 107 3 20.2923 114.662 9 960 0 0 20.1849 114.685 6 101 959 20.2426 114.520 SuperT 97 952 20.3000 114.635 TC 107 20.3228 114.625 4 106 20.3000 114.635 107 959 240 11 277
1963240N09157 1963 77 WP MM FAYE 1963-09-06 12:00:00 TS 20.3429 114.071 960 tokyo main 212 178 OOOO_____OOO__ jtwc_wp WP131963 20.4000 114.100 105 3 20.3000 114.100 9 960 0 0 0 20.3000 114.100 5 97 960 20.2000 113.900 ST 95 955 20.4000 114.100 TC 105 20.4000 114.100 4 105 20.4000 114.100 105 960 240 10 277
1963240N09157 1963 77 WP MM FAYE 1963-09-06 15:00:00 TS 20.3937 113.589 main 178 168 PPPP_____PPP__ WP131963 20.4647 113.642 102 3 20.3421 113.635 9 960 0 0 20.3724 113.563 5 97 960 20.1922 113.405 ST 92 957 20.4647 113.642 TC 102 20.4551 113.595 4 102 20.4647 113.642 102 960 240 9 276
1963240N09157 1963 77 WP MM FAYE 1963-09-06 18:00:00 TS 20.4278 113.145 960 tokyo main 164 151 OOOO_____OPO__ jtwc_wp WP131963 20.5000 113.200 100 3 20.4000 113.200 9 960 0 0 0 20.4000 113.100 5 97 960 20.2000 113.000 ST 90 960 20.5000 113.200 TC 100 20.4943 113.113 4 100 20.5000 113.200 100 961 240 8 273
1963240N09157 1963 77 WP MM FAYE 1963-09-06 21:00:00 TS 20.4419 112.694 main 151 142 PPPP_____PPP__ WP131963 20.5225 112.700 97 3 20.4574 112.708 9 960 0 0 20.3647 112.742 5 97 960 20.1922 112.657 ST 87 960 20.5225 112.700 TC 97 20.5114 112.649 4 97 20.5225 112.700 97 962 210 8 270
1963240N09157 1963 77 WP MM FAYE 1963-09-07 00:00:00 TS 20.4286 112.243 960 tokyo main 137 109 OOOO_____OOO__ jtwc_wp WP131963 20.5000 112.200 95 2 20.5000 112.200 9 960 0 0 0 20.3000 112.400 5 97 960 20.2000 112.300 ST 85 960 20.5000 112.200 TC 95 20.5000 112.200 4 95 20.5000 112.200 95 964 180 9 266
1963240N09157 1963 77 WP MM FAYE 1963-09-07 03:00:00 TS 20.3856 111.769 main 109 61 PPPP_____PPP__ WP131963 20.4074 111.735 90 2 20.5074 111.692 9 962 0 0 20.2501 111.942 5 92 962 20.2577 111.800 ST 80 962 20.4074 111.735 TC 90 20.4617 111.740 4 90 20.4074 111.735 90 964 180 9 263
1963240N09157 1963 77 WP MM FAYE 1963-09-07 06:00:00 TS 20.3278 111.314 965 tokyo main 61 30 OOOO_____OPO__ jtwc_wp WP131963 20.3000 111.300 85 2 20.5000 111.200 9 965 0 0 0 20.2000 111.500 5 87 965 20.3000 111.300 T 75 965 20.3000 111.300 TC 85 20.3948 111.297 4 85 20.3000 111.300 85 965 180 8 263
1963240N09157 1963 77 WP MM FAYE 1963-09-07 09:00:00 TS 20.2835 110.909 main 30 11 PPPP_____PPP__ WP131963 20.2499 110.885 80 1 20.4999 110.735 9 967 0 0 20.1573 111.185 5 87 965 20.2724 110.905 T 70 967 20.2499 110.885 TC 80 20.3055 110.881 4 80 20.2499 110.885 80 966 150 7 262
1963240N09157 1963 77 WP MM FAYE 1963-09-07 12:00:00 TS 20.2286 110.543 970 tokyo main 15 0 OOOO_____OOO__ jtwc_wp WP131963 20.2000 110.500 75 1 20.5000 110.300 9 970 0 0 0 20.1000 110.900 5 87 965 20.2000 110.600 T 65 970 20.2000 110.500 TC 75 20.2000 110.500 4 75 20.2000 110.500 75 967 120 7 259
1963240N09157 1963 77 WP MM FAYE 1963-09-07 15:00:00 TS 20.1503 110.196 main 10 10 PPPP_____PPP__ WP131963 20.1150 110.128 67 1 20.4999 109.885 9 977 0 0 20.0075 110.557 5 77 966 20.1149 110.385 T 60 975 20.1150 110.128 TC 67 20.0849 110.160 4 68 20.1150 110.128 67 968 120 6 254
1963240N09157 1963 77 WP MM FAYE 1963-09-07 18:00:00 TS 20.0510 109.879 985 tokyo main 11 0 OOOO_____OPO__ jtwc_wp WP131963 20.0000 109.800 60 0 20.5000 109.500 9 985 0 0 0 19.9000 110.200 4 68 968 20.0000 110.200 STS 55 980 20.0000 109.800 TC 60 19.9569 109.855 4 62 20.0000 109.800 60 969 120 6 249
1963240N09157 1963 77 WP MM FAYE 1963-09-07 21:00:00 TS 19.9311 109.588 main 0 0 PPPP_____PPP__ WP131963 19.8499 109.535 55 0 20.4999 109.135 9 987 0 0 19.8000 109.835 4 63 971 19.8425 109.965 STS 50 985 19.8499 109.535 TC 55 19.8256 109.573 4 56 19.8499 109.535 55 970 150 6 246
1963240N09157 1963 77 WP MM FAYE 1963-09-08 00:00:00 TS 19.8143 109.314 990 tokyo main 0 0 OOOO_____OOO__ jtwc_wp WP131963 19.7000 109.300 50 0 20.5000 108.800 9 990 0 0 0 19.7000 109.500 3 58 975 19.7000 109.700 TS 45 990 19.7000 109.300 TC 50 19.7000 109.300 2 50 19.7000 109.300 50 971 180 5 248
1963240N09157 1963 77 WP MM FAYE 1963-09-08 03:00:00 TS 19.7252 109.052 main 10 10 PPPP_____PPP__ WP131963 19.5924 109.058 47 0 20.4999 108.500 9 991 0 0 19.5849 109.243 3 53 977 19.6274 109.423 TS 42 991 19.5924 109.058 TC 47 19.5872 109.027 2 47 19.5924 109.058 47 972 150 5 254
1963240N09157 1963 77 WP MM FAYE 1963-09-08 06:00:00 TS 19.6676 108.779 992 tokyo main 24 22 OOOO_____OPO__ jtwc_wp WP131963 19.5000 108.800 45 0 20.5000 108.200 9 992 0 0 0 19.5000 109.000 3 48 980 19.6000 109.100 TS 40 992 19.5000 108.800 TC 45 19.4855 108.752 2 45 19.5000 108.800 45 973 120 5 257
1963240N09157 1963 77 WP MM FAYE 1963-09-08 09:00:00 TS 19.6087 108.501 main 30 30 PPPP_____PPP__ WP131963 19.3463 108.627 42 0 20.5001 107.843 9 993 0 0 19.4850 108.708 3 48 980 19.5776 108.707 TS 37 993 19.3463 108.627 TC 42 19.3910 108.476 2 42 19.4026 108.510 42 974 90 6 265
1963240N09157 1963 77 WP MM FAYE 1963-09-08 12:00:00 TS 19.6091 108.127 994 tokyo main 62 62 OOOO_____OOO__ jtwc_wp WP131963 19.3000 108.200 40 0 20.5000 107.500 9 994 0 0 0 19.5000 108.400 3 48 980 19.6000 108.300 TS 35 995 19.3000 108.200 TC 40 19.3000 108.200 2 40 19.3000 108.200 40 975 60 9 279
1963240N09157 1963 77 WP MM FAYE 1963-09-08 15:00:00 TS 19.7529 107.538 main 109 53 PPPP_____P____ WP131963 19.5212 107.206 40 0 20.5149 107.235 9 995 0 0 19.4999 108.115 3 48 980 19.7075 107.928 TS 35 995 19.5212 107.206 TC 40 2 12 283
1963240N09157 1963 77 WP MM FAYE 1963-09-08 18:00:00 TS 19.8800 106.880 996 tokyo main 53 15 OOOO_____O____ jtwc_wp WP131963 19.8000 106.000 40 0 20.5000 107.000 9 996 0 0 0 19.5000 107.800 3 48 980 19.8000 107.600 TS 35 995 19.8000 106.000 TC 40 2 12 277
1963240N09157 1963 77 WP MM FAYE 1963-09-08 21:00:00 TS 19.9000 106.316 main 15 0 PPPP_____P____ WP131963 19.8992 104.984 37 0 20.4223 106.780 9 995 0 0 19.4995 107.467 3 48 980 19.7797 107.365 TS 35 995 19.8992 104.984 TC 37 2 9 271
1963240N09157 1963 77 WP MM FAYE 1963-09-09 00:00:00 TS 19.8889 105.911 995 tokyo main 0 0 OOOO_____O____ jtwc_wp WP131963 20.0000 104.000 35 0 20.3000 106.500 9 995 0 0 0 19.5000 107.000 3 48 980 19.7000 107.100 TS 35 995 20.0000 104.000 TC 35 8 268
1963240N09157 1963 77 WP MM FAYE 1963-09-09 03:00:00 TS 19.8699 105.504 main 0 0 PPPP_____P____ WP131963 20.2138 103.006 32 -1 20.1352 106.057 9 992 0 0 19.5007 106.265 3 43 982 19.6300 106.688 TS 32 995 20.2138 103.006 TC 32 7 263
1963240N09157 1963 77 WP MM FAYE 1963-09-09 06:00:00 TS 19.8077 105.208 990 tokyo main 0 0 OOOO_____O____ jtwc_wp WP131963 20.5000 102.000 30 -1 20.0000 105.600 9 990 0 0 0 19.5000 105.500 2 38 985 19.5000 106.200 TD 30 996 20.5000 102.000 TC 30 3 206
1963240N09157 1963 77 WP MM FAYE 1963-09-09 09:00:00 TS 19.5969 105.365 main 0 0 _PPP__________ WP131963 -1 19.9774 105.270 9 991 0 0 19.4996 104.933 2 38 987 19.2651 105.677 TD 30 997 TC 3 217
1963240N09157 1963 77 WP MM FAYE 1963-09-09 12:00:00 TS 19.5625 105.013 992 tokyo main 0 0 _OOO__________ -1 20.0000 105.000 9 992 0 0 0 19.5000 104.500 2 38 990 19.0000 105.200 TD 30 998 6 270
1963240N09157 1963 77 WP MM FAYE 1963-09-09 15:00:00 NR 19.5941 104.781 main 0 0 _P_P__________ -1 19.9999 104.743 9 993 0 0 2 18.7824 104.858 TD 27 998 5 289
1963240N09157 1963 77 WP MM FAYE 1963-09-09 18:00:00 NR 19.7200 104.520 994 tokyo main 0 0 _O_O__________ -1 20.0000 104.500 9 994 0 0 0 18.6000 104.600 TD 25 998 7 309
1963240N09157 1963 77 WP MM FAYE 1963-09-09 21:00:00 NR 20.0000 104.243 main 0 0 _P____________ -1 20.0000 104.243 9 994 0 0 TD 6 300
1963240N09157 1963 77 WP MM FAYE 1963-09-10 00:00:00 TS 20.0000 104.000 994 tokyo main 0 0 _O____________ -1 20.0000 104.000 2 994 0 0 0 4 270
1963240N09157 1963 77 WP MM FAYE 1963-09-10 03:00:00 TS 19.9999 103.793 main 0 0 _P____________ -1 19.9999 103.793 2 995 0 0 4 270
1963240N09157 1963 77 WP MM FAYE 1963-09-10 06:00:00 TS 20.0000 103.600 996 tokyo main 0 0 _O____________ -1 20.0000 103.600 2 996 0 0 0 4 270
1963240N09157 1963 77 WP MM FAYE 1963-09-10 09:00:00 TS 20.0000 103.385 main 0 0 _P____________ -1 20.0000 103.385 2 997 0 0 4 270
1963240N09157 1963 77 WP MM FAYE 1963-09-10 12:00:00 TS 20.0000 103.200 998 tokyo main 0 0 _O____________ -1 20.0000 103.200 2 998 0 0 0 3 270
1963240N09157 1963 77 WP MM FAYE 1963-09-10 15:00:00 TS 20.0000 103.085 main 0 0 _P____________ -1 20.0000 103.085 2 998 0 0 2 270
1963240N09157 1963 77 WP MM FAYE 1963-09-10 18:00:00 TS 20.0000 103.000 998 tokyo main 0 0 _O____________ -1 20.0000 103.000 2 998 0 0 0 2 270
1963240N09157 1963 77 WP MM FAYE 1963-09-10 21:00:00 TS 20.0000 102.905 main 0 0 _P____________ -1 20.0000 102.905 2 999 0 0 2 270
1963240N09157 1963 77 WP MM FAYE 1963-09-11 00:00:00 TS 20.0000 102.800 1000 tokyo main 0 _O____________ -1 20.0000 102.800 2 1000 0 0 0 2 270

デジタル台風データ・検索

IBTrACS Databaseについて

本データベースは、米国NOAAが公開する1842年以降の世界の熱帯低気圧のベストトラックデータアーカイブInternational Best Track Archive for Climate Stewardship (IBTrACS)を、ウェブで閲覧しやすい形式に変換したものです。

最終更新日:2021-10-21